Flight Track Log - Related Links

Times and Time Zones

All times are in EDT time to prevent confusion due to time zone crossing. See the EJA960 flight status page for this flight to view local times or setup timezone preferences in your user account.

Time Position Orientation Groundspeed Altitude Reporting Facility
EDT Latitude Longitude Course Direction KTS MPH feet Rate Location/Type
Sun 01:29:54 AM 32.8333 -96.8333 128° Southeast 193 222 1,300  Level Dallas / Fort Worth TRACON
Sun 01:31:00 AM 32.8000 -96.7833 128° Southeast 183 211 5,200 3,238 Climbing Dallas / Fort Worth TRACON
Sun 01:32:00 AM 32.7833 -96.8000 220° Southwest 227 261 8,100 2,254 Climbing Dallas / Fort Worth TRACON
Sun 01:34:09 AM 32.8472 -96.9981 291° West 301 346 12,300 1,778 Climbing Fort Worth Center
Sun 01:35:09 AM 32.8831 -97.1092 280° West 339 390 13,700 1,500 Climbing Fort Worth Center
Sun 01:36:09 AM 32.9314 -97.2278 296° West 364 419 15,300 1,400 Climbing Fort Worth Center
Sun 01:37:09 AM 32.9961 -97.3094 313° West 379 436 16,500 1,500 Climbing Fort Worth Center
Sun 01:38:09 AM 33.0775 -97.4108 314° West 386 444 18,300 1,600 Climbing Fort Worth Center
Sun 01:39:09 AM 33.1444 -97.4953 313° West 386 444 19,700 1,500 Climbing Fort Worth Center
Sun 01:40:09 AM 33.2278 -97.5997 314° West 391 450 21,300 1,550 Climbing Fort Worth Center
Sun 01:41:09 AM 33.3047 -97.6992 313° West 396 456 22,800 1,250 Climbing Fort Worth Center
Sun 01:42:09 AM 33.3797 -97.7892 315° West 401 461 23,800 1,200 Climbing Fort Worth Center
Sun 01:43:09 AM 33.4608 -97.8917 314° West 414 476 25,200 1,400 Climbing Fort Worth Center
Sun 01:44:09 AM 33.5439 -97.9942 314° West 420 483 26,600 1,300 Climbing Fort Worth Center
Sun 01:45:09 AM 33.6289 -98.1019 313° West 425 489 27,800 1,150 Climbing Fort Worth Center
Sun 01:46:09 AM 33.7094 -98.2125 311° West 430 495 28,900 1,200 Climbing Fort Worth Center
Sun 01:47:09 AM 33.7964 -98.3183 315° West 435 501 30,200 1,400 Climbing Fort Worth Center
Sun 01:48:09 AM 33.8853 -98.4342 313° West 448 516 31,700 1,750 Climbing Fort Worth Center
Sun 01:49:09 AM 33.9719 -98.5456 313° West 453 521 33,700 1,850 Climbing Fort Worth Center
Sun 01:50:09 AM 34.0586 -98.6569 313° West 453 521 35,400 1,700 Climbing Fort Worth Center
Sun 01:51:09 AM 34.1511 -98.7839 311° West 448 516 37,100 1,400 Climbing Fort Worth Center
Sun 01:52:09 AM 34.2417 -98.8983 314° West 459 528 38,200 950 Climbing Fort Worth Center
Sun 01:53:09 AM 34.3300 -99.0131 313° West 464 534 39,000 900 Climbing Fort Worth Center
Sun 01:54:09 AM 34.4225 -99.1256 315° West 476 548 40,000 1,000 Climbing Fort Worth Center
Sun 01:55:09 AM 34.5144 -99.2508 312° West 481 554 41,000 500 Climbing Fort Worth Center
Sun 01:56:09 AM 34.6086 -99.3714 314° West 486 559 41,000  Level Fort Worth Center
Sun 01:57:09 AM 34.7044 -99.5025 312° West 500 575 41,000  Level Fort Worth Center
Sun 01:58:09 AM 34.8044 -99.6339 313° West 514 592 41,000  Level Fort Worth Center
Sun 01:59:08 AM 34.9022 -99.7631 313° West 522 601 41,000  Level Fort Worth Center
Sun 01:59:38 AM 34.9461 -99.8192 314° West 531 611 41,000  Level Albuquerque Center
Sun 02:00:38 AM 35.0472 -99.9550 312° West 536 617 41,000  Level Albuquerque Center
Sun 02:01:38 AM 35.1469 -100.0889 312° West 532 612 41,000  Level Albuquerque Center
Sun 02:02:39 AM 35.2467 -100.2236 312° West 532 612 41,000  Level Albuquerque Center
Sun 02:03:39 AM 35.3447 -100.3581 312° West 528 608 41,000  Level Albuquerque Center
Sun 02:04:39 AM 35.4450 -100.4933 312° West 530 610 41,000  Level Albuquerque Center
Sun 02:05:40 AM 35.5442 -100.6297 312° West 531 611 41,000  Level Albuquerque Center
Sun 02:06:40 AM 35.6469 -100.7700 312° West 529 609 41,000  Level Albuquerque Center
Sun 02:07:40 AM 35.7411 -100.9000 312° West 528 608 41,000  Level Albuquerque Center
Sun 02:08:41 AM 35.8406 -101.0386 312° West 528 608 41,000  Level Albuquerque Center
Sun 02:09:41 AM 35.9394 -101.1767 312° West 534 615 41,000  Level Albuquerque Center
Sun 02:10:42 AM 36.0364 -101.3119 312° West 535 616 41,000  Level Albuquerque Center
Sun 02:11:42 AM 36.1333 -101.4497 311° West 534 615 41,000  Level Albuquerque Center
Sun 02:12:42 AM 36.2297 -101.5836 312° West 529 609 41,000  Level Albuquerque Center
Sun 02:13:43 AM 36.3247 -101.7172 311° West 523 602 41,000  Level Albuquerque Center
Sun 02:14:43 AM 36.4197 -101.8522 311° West 521 600 41,000  Level Albuquerque Center
Sun 02:15:44 AM 36.5131 -101.9850 311° West 516 594 41,000  Level Albuquerque Center
Sun 02:16:44 AM 36.6206 -102.1383 311° West 512 589 41,000  Level Albuquerque Center
Sun 02:17:44 AM 36.6969 -102.2500 310° West 508 585 41,000  Level Albuquerque Center
Sun 02:18:45 AM 36.7894 -102.3819 311° West 506 582 41,000  Level Albuquerque Center
Sun 02:19:45 AM 36.8944 -102.5342 311° West 507 583 41,000  Level Albuquerque Center
Sun 02:20:45 AM 36.9819 -102.6617 311° West 505 581 41,000  Level Albuquerque Center
Sun 02:21:46 AM 37.0694 -102.7878 311° West 503 579 41,000  Level Albuquerque Center
Sun 02:22:46 AM 37.1717 -102.9389 310° West 507 583 41,000  Level Albuquerque Center
Sun 02:23:47 AM 37.2606 -103.0681 311° West 511 588 41,000  Level Albuquerque Center
Sun 02:24:47 AM 37.3472 -103.1981 310° West 509 586 41,000  Level Albuquerque Center
Sun 02:25:47 AM 37.4503 -103.3489 311° West 510 587 41,000  Level Albuquerque Center
Sun 02:26:48 AM 37.5369 -103.4778 310° West 507 583 41,000  Level Albuquerque Center
Sun 02:27:48 AM 37.6231 -103.6064 310° West 505 581 41,000  Level Albuquerque Center
Sun 02:28:57 AM 37.7225 -103.7558 310° West 505 581 41,000  Level Denver Center
Sun 02:29:57 AM 37.8217 -103.9058 310° West 504 580 41,000  Level Denver Center
Sun 02:30:57 AM 37.9061 -104.0344 310° West 502 578 41,000  Level Denver Center
Sun 02:31:57 AM 37.9911 -104.1636 310° West 500 575 41,000  Level Denver Center
Sun 02:32:57 AM 38.0900 -104.3139 310° West 499 574 41,000  Level Denver Center
Sun 02:33:58 AM 38.1736 -104.4439 309° West 500 575 41,000  Level Denver Center
Sun 02:34:58 AM 38.2572 -104.5725 310° West 495 570 41,000  Level Denver Center
Sun 02:35:58 AM 38.3553 -104.7261 309° West 500 575 41,000  Level Denver Center
Sun 02:37:10 AM 38.4542 -104.8781 310° West 498 573 41,000  Level Denver Center
Sun 02:38:10 AM 38.5383 -105.0108 309° West 503 579 41,000  Level Denver Center
Sun 02:39:11 AM 38.6358 -105.1650 309° West 500 575 41,000  Level Denver Center
Sun 02:40:11 AM 38.7219 -105.2953 310° West 502 578 41,000  Level Denver Center
Sun 02:41:11 AM 38.8044 -105.4297 308° West 502 578 41,000  Level Denver Center
Sun 02:42:11 AM 38.9025 -105.5842 309° West 501 577 41,000  Level Denver Center
Sun 02:43:11 AM 38.9867 -105.7192 309° West 504 580 41,000  Level Denver Center
Sun 02:44:12 AM 39.0672 -105.8472 309° West 504 580 41,000  Level Denver Center
Sun 02:45:12 AM 39.1536 -105.9861 309° West 500 575 41,000  Level Denver Center
Sun 02:46:12 AM 39.2389 -106.1253 308° West 495 570 41,000  Level Denver Center
Sun 02:47:12 AM 39.3342 -106.2778 309° West 495 570 41,000  Level Denver Center
Sun 02:48:12 AM 39.4200 -106.4181 308° West 496 571 41,000  Level Denver Center
Sun 02:49:12 AM 39.4981 -106.5444 309° West 497 572 41,000  Level Denver Center
Sun 02:50:13 AM 39.5917 -106.6992 308° West 491 565 41,000  Level Denver Center
Sun 02:51:13 AM 39.6731 -106.8333 308° West 492 566 41,000  Level Denver Center
Sun 02:52:13 AM 39.7461 -106.9550 308° West 497 572 41,000  Level Denver Center
Sun 02:53:13 AM 39.8300 -107.0953 308° West 495 570 41,000  Level Denver Center
Sun 02:54:13 AM 39.9289 -107.2603 308° West 492 566 41,000  Level Denver Center
Sun 02:55:13 AM 40.0086 -107.3956 308° West 494 568 41,000  Level Denver Center
Sun 02:56:14 AM 40.0900 -107.5292 309° West 492 566 41,000  Level Denver Center
Sun 02:57:14 AM 40.1811 -107.6858 307° West 489 563 41,000  Level Denver Center
Sun 02:58:14 AM 40.2592 -107.8206 307° West 487 560 41,000  Level Denver Center
Sun 02:59:14 AM 40.3381 -107.9558 307° West 490 564 41,000  Level Denver Center
Sun 03:00:14 AM 40.4172 -108.0903 308° West 488 562 41,000  Level Denver Center
Sun 03:00:56 AM 40.4750 -108.1903 307° West 486 559 41,000  Level Salt Lake Center
Sun 03:01:56 AM 40.5656 -108.3511 307° West 488 562 41,000  Level Salt Lake Center
Sun 03:02:15 AM 40.5864 -108.3842 310° West 487 560 41,000  Level Denver Center
Sun 03:02:57 AM 40.6447 -108.4867 307° West 487 560 41,000  Level Salt Lake Center
Sun 03:03:57 AM 40.7225 -108.6231 307° West 486 559 41,000  Level Salt Lake Center
Sun 03:04:15 AM 40.7486 -108.6692 307° West 489 563 41,000  Level Denver Center
Sun 03:05:15 AM 40.8272 -108.8069 307° West 489 563 41,000  Level Denver Center
Sun 03:05:57 AM 40.8914 -108.9206 307° West 486 559 41,000  Level Salt Lake Center
Sun 03:06:58 AM 40.9692 -109.0586 307° West 486 559 41,000  Level Salt Lake Center
Sun 03:07:58 AM 41.0472 -109.1981 307° West 489 563 41,000  Level Salt Lake Center
Sun 03:08:58 AM 41.1253 -109.3375 307° West 489 563 41,000  Level Salt Lake Center
Sun 03:09:59 AM 41.2156 -109.5006 306° West 486 559 41,000  Level Salt Lake Center
Sun 03:10:59 AM 41.2919 -109.6411 306° West 486 559 41,000  Level Salt Lake Center
Sun 03:11:59 AM 41.3689 -109.7797 307° West 485 558 41,000  Level Salt Lake Center
Sun 03:12:59 AM 41.4461 -109.9203 306° West 489 563 41,000  Level Salt Lake Center
Sun 03:14:00 AM 41.5353 -110.0847 306° West 489 563 41,000  Level Salt Lake Center
Sun 03:15:00 AM 41.6111 -110.2253 306° West 487 560 41,000  Level Salt Lake Center
Sun 03:16:00 AM 41.6883 -110.3675 306° West 492 566 41,000  Level Salt Lake Center
Sun 03:17:00 AM 41.7778 -110.5336 306° West 492 566 41,000  Level Salt Lake Center
Sun 03:18:01 AM 41.8542 -110.6736 306° West 486 559 41,000  Level Salt Lake Center
Sun 03:19:01 AM 41.9297 -110.8178 305° West 493 567 41,000  Level Salt Lake Center
Sun 03:20:01 AM 42.0144 -110.9781 305° West 487 560 41,000  Level Salt Lake Center
Sun 03:21:01 AM 42.0919 -111.1272 305° West 488 562 41,000  Level Salt Lake Center
Sun 03:22:02 AM 42.1708 -111.2758 306° West 489 563 41,000  Level Salt Lake Center
Sun 03:23:02 AM 42.2492 -111.4261 305° West 492 566 41,000  Level Salt Lake Center
Sun 03:24:02 AM 42.3272 -111.5767 305° West 492 566 41,000  Level Salt Lake Center
Sun 03:25:03 AM 42.4050 -111.7283 305° West 493 567 41,000  Level Salt Lake Center
Sun 03:26:03 AM 42.4825 -111.8781 305° West 490 564 41,000  Level Salt Lake Center
Sun 03:27:03 AM 42.5611 -112.0303 305° West 493 567 41,000  Level Salt Lake Center
Sun 03:28:03 AM 42.6372 -112.1817 304° West 489 563 41,000  Level Salt Lake Center
Sun 03:29:03 AM 42.7186 -112.3417 305° West 489 563 41,000  Level Salt Lake Center
Sun 03:30:04 AM 42.7931 -112.4881 305° West 490 564 41,000  Level Salt Lake Center
Sun 03:31:04 AM 42.8672 -112.6358 304° West 492 566 41,000  Level Salt Lake Center
Sun 03:32:04 AM 42.9406 -112.7839 304° West 493 567 41,000  Level Salt Lake Center
Sun 03:33:04 AM 43.0258 -112.9558 304° West 490 564 41,000  Level Salt Lake Center
Sun 03:34:05 AM 43.0994 -113.1028 304° West 489 563 41,000  Level Salt Lake Center
Sun 03:35:05 AM 43.1725 -113.2528 304° West 493 567 41,000  Level Salt Lake Center
Sun 03:36:05 AM 43.2567 -113.4261 304° West 490 564 41,000  Level Salt Lake Center
Sun 03:37:05 AM 43.3294 -113.5744 304° West 488 562 41,000  Level Salt Lake Center
Sun 03:38:05 AM 43.4008 -113.7242 303° West 489 563 41,000  Level Salt Lake Center
Sun 03:39:06 AM 43.4806 -113.8942 303° West 499 574 41,000  Level Salt Lake Center
Sun 03:40:06 AM 43.5528 -114.0431 304° West 489 563 41,000  Level Salt Lake Center
Sun 03:41:06 AM 43.6236 -114.1928 303° West 485 558 41,000  Level Salt Lake Center
Sun 03:42:06 AM 43.6947 -114.3417 303° West 485 558 41,000  Level Salt Lake Center
Sun 03:43:06 AM 43.7764 -114.5169 303° West 487 560 41,000  Level Salt Lake Center
Sun 03:44:07 AM 43.8467 -114.6672 303° West 486 559 41,000  Level Salt Lake Center
Sun 03:45:07 AM 43.9169 -114.8178 303° West 485 558 41,000  Level Salt Lake Center
Sun 03:46:07 AM 43.9994 -114.9922 303° West 483 556 41,000  Level Salt Lake Center
Sun 03:47:07 AM 44.0689 -115.1447 302° West 487 560 41,000  Level Salt Lake Center
Sun 03:48:07 AM 44.1383 -115.2950 303° West 483 556 41,000  Level Salt Lake Center
Sun 03:49:08 AM 44.2067 -115.4478 302° West 486 559 41,000  Level Salt Lake Center
Sun 03:50:08 AM 44.2886 -115.6256 303° West 489 563 41,000  Level Salt Lake Center
Sun 03:51:08 AM 44.3567 -115.7775 302° West 486 559 41,000  Level Salt Lake Center
Sun 03:52:08 AM 44.4244 -115.9275 302° West 482 555 41,000  Level Salt Lake Center
Sun 03:53:08 AM 44.5025 -116.1003 302° West 485 558 41,000  Level Salt Lake Center
Sun 03:54:08 AM 44.5675 -116.2531 301° West 488 562 41,000  Level Salt Lake Center
Sun 03:55:09 AM 44.6339 -116.4053 302° West 484 557 41,000  Level Salt Lake Center
Sun 03:56:09 AM 44.7133 -116.5844 302° West 484 557 41,000  Level Salt Lake Center
Sun 03:57:09 AM 44.7797 -116.7386 301° West 483 556 41,000  Level Salt Lake Center
Sun 03:58:09 AM 44.8456 -116.8917 301° West 480 552 41,000  Level Salt Lake Center
Sun 03:59:09 AM 44.9233 -117.0725 301° West 481 554 41,000  Level Salt Lake Center
Sun 03:59:43 AM 44.9567 -117.1503 301° West 481 554 41,000  Level Seattle Center
Sun 04:00:43 AM 45.0236 -117.3033 302° West 479 551 41,000  Level Seattle Center
Sun 04:01:43 AM 45.0906 -117.4592 301° West 482 555 41,000  Level Seattle Center
Sun 04:02:43 AM 45.1744 -117.6194 307° West 479 551 41,000  Level Seattle Center
Sun 04:03:43 AM 45.2528 -117.7703 306° West 478 550 41,000  Level Seattle Center
Sun 04:04:43 AM 45.3311 -117.9219 306° West 478 550 41,000  Level Seattle Center
Sun 04:05:43 AM 45.4103 -118.0742 307° West 478 550 41,000  Level Seattle Center
Sun 04:06:43 AM 45.4875 -118.2258 306° West 475 547 41,000  Level Seattle Center
Sun 04:07:43 AM 45.5653 -118.3781 306° West 478 550 41,000  Level Seattle Center
Sun 04:08:43 AM 45.6419 -118.5289 306° West 473 544 41,000  Level Seattle Center
Sun 04:09:43 AM 45.7175 -118.6803 306° West 472 543 41,000  Level Seattle Center
Sun 04:10:43 AM 45.7925 -118.8322 305° West 471 542 41,000  Level Seattle Center
Sun 04:11:43 AM 45.8681 -118.9828 306° West 469 540 41,000  Level Seattle Center
Sun 04:12:43 AM 45.9439 -119.1361 305° West 472 543 41,000  Level Seattle Center
Sun 04:13:44 AM 46.0192 -119.2883 305° West 472 543 41,000  Level Seattle Center
Sun 04:14:44 AM 46.0950 -119.4408 306° West 471 542 41,000  Level Seattle Center
Sun 04:15:44 AM 46.1686 -119.5944 305° West 470 541 41,000  Level Seattle Center
Sun 04:16:44 AM 46.2431 -119.7469 305° West 469 540 41,000  Level Seattle Center
Sun 04:17:44 AM 46.3178 -119.9064 304° West 475 547 41,000 -1,150 Level Seattle Center
Sun 04:18:44 AM 46.3942 -120.0628 305° West 482 555 38,700 -2,450 Descending Seattle Center
Sun 04:19:44 AM 46.4706 -120.2228 305° West 485 558 36,100 -2,500 Descending Seattle Center
Sun 04:20:44 AM 46.5444 -120.3781 305° West 472 543 33,700 -2,450 Descending Seattle Center
Sun 04:21:44 AM 46.6169 -120.5322 304° West 465 535 31,200 -2,450 Descending Seattle Center
Sun 04:22:44 AM 46.6911 -120.6881 305° West 471 542 28,800 -2,500 Descending Seattle Center
Sun 04:23:44 AM 46.7658 -120.8481 304° West 477 549 26,200 -2,550 Descending Seattle Center
Sun 04:24:44 AM 46.8372 -121.0031 304° West 464 534 23,700 -2,450 Descending Seattle Center
Sun 04:25:44 AM 46.9069 -121.1544 304° West 453 521 21,300 -2,350 Descending Seattle Center
Sun 04:26:44 AM 46.9750 -121.3094 303° West 453 521 19,000 -2,519 Descending Seattle Center
Sun 04:27:05 AM 47.0089 -121.3714 309° West 436 502 17,900 -2,400 Descending Seattle Center
Sun 04:27:44 AM 47.0503 -121.4686 302° West 421 484 16,600 -1,152 Descending Seattle Center
Sun 04:28:44 AM 47.1114 -121.5989 305° West 383 441 16,000 -300 Descending Seattle Center
Sun 04:29:44 AM 47.1756 -121.7381 304° West 414 476 16,000 -850 Level Seattle Center
Sun 04:30:44 AM 47.2397 -121.8789 304° West 416 479 14,300 -1,400 Descending Seattle Center
Sun 04:31:44 AM 47.3003 -122.0111 304° West 393 452 13,200 -1,050 Descending Seattle Center
Sun 04:32:44 AM 47.3494 -122.1219 303° West 300 345 12,200 -1,339 Descending Seattle Center
Sun 04:33:45 AM 47.3875 -122.2189 300° West 261 300 10,500 -2,033 Descending Seattle Center
Sun 04:34:45 AM 47.4242 -122.3197 298° West 273 314 8,100 -1,750 Descending Seattle Center
Sun 04:35:45 AM 47.4611 -122.4192 299° West 271 312 7,000 -1,600 Descending Seattle Center
Sun 04:36:45 AM 47.5192 -122.4792 325° Northwest 263 303 4,900 -2,350 Descending Seattle Center
Sun 04:37:45 AM 47.5822 -122.5336 330° Northwest 262 302 2,300 -1,350 Descending Seattle Center
Sun 04:38:45 AM 47.6239 -122.4717 45° Northeast 244 281 2,200 -250 Descending Seattle Center
Sun 04:39:45 AM 47.6136 -122.3786 99° East 233 268 1,800 -700 Descending Seattle Center
Sun 04:40:45 AM 47.5725 -122.3397 147° Southeast 174 200 800 -850 Descending Seattle Center
Sun 04:41:45 AM 47.5428 -122.3139 150° Southeast 135 155 100 -700 Descending Seattle Center
Sun 04:44:00 AM 47.5300 -122.3020 132° Southeast  Level Estimated

Login

Don't have an account? Register now (free) for customized features, flight alerts, and more!